METAR Espana - 23 Oct 2017 - 0948 UTC - RocketRoute WX - rrwx.com
LEAL 230930Z 07003KT 030V110 9999 FEW018 BKN024 BKN036 21/15 Q1026 NOSIG LEAM 230930Z 09007KT 060V130 9999 SCT025 23/17 Q1025 LEAS 230930Z VRB02KT CAVOK 14/07 Q1027 NOSIG LEBZ 230900Z 00000KT CAVOK 15/10 Q1025 LEBL 230930Z 34008KT 290V030 9999 FEW025 SCT030 17/09 Q1025 NOSIG LEBB 230930Z VRB01KT CAVOK 15/10 Q1027 NOSIG LEGR 230930Z 00000KT CAVOK 17/13 Q1026 LEIB 230930Z 06005KT 020V100 9999 FEW030 21/13 Q1025 NOSIG LEJR 230930Z 00000KT CAVOK 22/15 Q1023 LELN 230900Z 00000KT CAVOK 08/03 Q1029 LEMD 230930Z 25002KT CAVOK 12/06 Q1028 NOSIG LEMG 230930Z VRB01KT 9999 FEW020 BKN035 20/16 Q1025 BECMG 12007KT LEMH 230930Z 36013KT 320V030 9999 FEW032 18/10 Q1025 LELC 230900Z 02005KT 350V050 9999 FEW027 BKN035 21/17 Q1025 NOSIG LEPA 230930Z 00000KT 9999 FEW040 20/15 Q1025 NOSIG LERS 230930Z 00000KT 9999 FEW030 18/08 Q1026 LEXJ 230930Z VRB01KT CAVOK 14/10 Q1027 LEST 230930Z VRB01KT CAVOK 09/06 Q1028 NOSIG LEZL 230930Z 06009KT 030V100 CAVOK 21/14 Q1023 NOSIG LEVC 230930Z 28003KT 240V320 9999 SCT025 18/08 Q1026 NOSIG LEVD 230930Z 00000KT CAVOK 11/05 Q1029 LEVT 230930Z 26001KT 7000 OVC006 07/07 Q1029 LEZG 230930Z 30012KT CAVOK 15/06 Q1027 GCLP 230930Z 05009KT 020V080 9999 FEW014 SCT030 24/19 Q1019 NOSIG GCRR 230930Z 08008KT 9999 FEW020 SCT025 23/20 Q1019 GCXO 230930Z 11009KT 080V160 9999 SCT006 BKN013 18/17 Q1021 NOSIG GCTS 230930Z 08017KT 9999 FEW022 24/18 Q1019 NOSIG

RocketRoute WX - rrwx.com weather for pilots